sensor_id;sensor_type;location;lat;lon;timestamp;pressure;altitude;pressure_sealevel;temperature;humidity
71145;BME280;58812;47.698;17.726;2022-12-29T00:01:43;100708.69;;;-0.01;100.00
71145;BME280;58812;47.698;17.726;2022-12-29T00:04:11;100706.84;;;0.01;100.00
71145;BME280;58812;47.698;17.726;2022-12-29T00:06:37;100709.50;;;0.01;100.00
71145;BME280;58812;47.698;17.726;2022-12-29T00:09:03;100708.56;;;0.02;100.00
71145;BME280;58812;47.698;17.726;2022-12-29T00:11:28;100705.94;;;0.02;100.00
71145;BME280;58812;47.698;17.726;2022-12-29T00:13:54;100690.12;;;0.02;100.00
71145;BME280;58812;47.698;17.726;2022-12-29T00:16:41;100699.00;;;-0.01;100.00
71145;BME280;58812;47.698;17.726;2022-12-29T00:19:08;100687.72;;;-0.03;100.00
71145;BME280;58812;47.698;17.726;2022-12-29T00:21:54;100699.88;;;0.00;100.00
71145;BME280;58812;47.698;17.726;2022-12-29T00:24:38;100698.13;;;0.01;100.00
71145;BME280;58812;47.698;17.726;2022-12-29T00:27:19;100705.16;;;0.00;100.00
71145;BME280;58812;47.698;17.726;2022-12-29T00:30:08;100702.53;;;0.00;100.00
71145;BME280;58812;47.698;17.726;2022-12-29T00:32:53;100702.56;;;-0.02;100.00
71145;BME280;58812;47.698;17.726;2022-12-29T00:35:39;100706.06;;;-0.01;100.00
71145;BME280;58812;47.698;17.726;2022-12-29T00:38:09;100705.16;;;0.00;100.00
71145;BME280;58812;47.698;17.726;2022-12-29T00:40:54;100703.41;;;-0.01;100.00
71145;BME280;58812;47.698;17.726;2022-12-29T00:43:38;100713.06;;;0.00;100.00
71145;BME280;58812;47.698;17.726;2022-12-29T00:46:21;100711.41;;;-0.03;100.00
71145;BME280;58812;47.698;17.726;2022-12-29T00:48:47;100710.53;;;-0.03;100.00
71145;BME280;58812;47.698;17.726;2022-12-29T00:51:31;100710.53;;;-0.03;100.00
71145;BME280;58812;47.698;17.726;2022-12-29T00:53:56;100710.47;;;-0.02;100.00
71145;BME280;58812;47.698;17.726;2022-12-29T00:56:22;100713.16;;;-0.03;100.00
71145;BME280;58812;47.698;17.726;2022-12-29T00:58:47;100710.53;;;-0.03;100.00
71145;BME280;58812;47.698;17.726;2022-12-29T01:01:12;100700.94;;;-0.04;100.00
71145;BME280;58812;47.698;17.726;2022-12-29T01:03:38;100704.50;;;-0.05;100.00
71145;BME280;58812;47.698;17.726;2022-12-29T01:06:06;100694.87;;;-0.06;100.00
71145;BME280;58812;47.698;17.726;2022-12-29T01:08:32;100694.87;;;-0.06;100.00
71145;BME280;58812;47.698;17.726;2022-12-29T01:11:06;100694.69;;;-0.02;100.00
71145;BME280;58812;47.698;17.726;2022-12-29T01:13:32;100694.63;;;0.00;100.00
71145;BME280;58812;47.698;17.726;2022-12-29T01:15:58;100694.75;;;-0.03;100.00
71145;BME280;58812;47.698;17.726;2022-12-29T01:18:24;100693.03;;;-0.04;100.00
71145;BME280;58812;47.698;17.726;2022-12-29T01:20:50;100691.34;;;-0.05;100.00
71145;BME280;58812;47.698;17.726;2022-12-29T01:23:16;100682.53;;;-0.04;100.00
71145;BME280;58812;47.698;17.726;2022-12-29T01:25:41;100681.59;;;-0.03;100.00
71145;BME280;58812;47.698;17.726;2022-12-29T01:28:07;100671.84;;;-0.01;100.00
71145;BME280;58812;47.698;17.726;2022-12-29T01:30:34;100687.63;;;-0.01;100.00
71145;BME280;58812;47.698;17.726;2022-12-29T01:33:00;100682.53;;;-0.04;100.00
71145;BME280;58812;47.698;17.726;2022-12-29T01:35:26;100682.53;;;-0.04;100.00
71145;BME280;58812;47.698;17.726;2022-12-29T01:37:52;100684.94;;;0.01;100.00
71145;BME280;58812;47.698;17.726;2022-12-29T01:40:17;100677.91;;;0.01;100.00
71145;BME280;58812;47.698;17.726;2022-12-29T01:42:42;100669.16;;;0.01;100.00
71145;BME280;58812;47.698;17.726;2022-12-29T01:47:48;100663.91;;;0.01;100.00
71145;BME280;58812;47.698;17.726;2022-12-29T01:53:18;100653.28;;;0.02;100.00
71145;BME280;58812;47.698;17.726;2022-12-29T01:55:48;100638.72;;;-0.05;100.00
71145;BME280;58812;47.698;17.726;2022-12-29T01:58:18;100647.25;;;0.00;100.00
71145;BME280;58812;47.698;17.726;2022-12-29T02:00:45;100655.16;;;0.00;100.00
71145;BME280;58812;47.698;17.726;2022-12-29T02:03:11;100654.13;;;0.03;100.00
71145;BME280;58812;47.698;17.726;2022-12-29T02:05:47;100647.09;;;0.03;100.00
71145;BME280;58812;47.698;17.726;2022-12-29T02:08:15;100649.72;;;0.03;100.00
71145;BME280;58812;47.698;17.726;2022-12-29T02:10:41;100646.25;;;0.03;100.00
71145;BME280;58812;47.698;17.726;2022-12-29T02:13:07;100648.81;;;0.04;100.00
71145;BME280;58812;47.698;17.726;2022-12-29T02:26:51;100637.84;;;0.13;100.00
71145;BME280;58812;47.698;17.726;2022-12-29T02:29:51;100640.19;;;0.19;100.00
71145;BME280;58812;47.698;17.726;2022-12-29T02:37:43;100618.22;;;0.20;100.00
71145;BME280;58812;47.698;17.726;2022-12-29T02:41:16;100621.56;;;0.24;100.00
71145;BME280;58812;47.698;17.726;2022-12-29T02:45:58;100609.84;;;0.30;100.00
71145;BME280;58812;47.698;17.726;2022-12-29T02:48:30;100608.09;;;0.30;100.00
71145;BME280;58812;47.698;17.726;2022-12-29T02:51:04;100615.84;;;0.33;100.00
71145;BME280;58812;47.698;17.726;2022-12-29T02:53:32;100609.53;;;0.37;100.00
71145;BME280;58812;47.698;17.726;2022-12-29T02:56:17;100603.53;;;0.34;100.00
71145;BME280;58812;47.698;17.726;2022-12-29T02:58:42;100612.06;;;0.39;100.00
71145;BME280;58812;47.698;17.726;2022-12-29T03:09:35;100612.84;;;0.41;100.00
71145;BME280;58812;47.698;17.726;2022-12-29T03:12:25;100608.59;;;0.38;100.00
71145;BME280;58812;47.698;17.726;2022-12-29T03:15:18;100611.31;;;0.37;100.00
71145;BME280;58812;47.698;17.726;2022-12-29T03:18:13;100616.56;;;0.37;100.00
71145;BME280;58812;47.698;17.726;2022-12-29T03:20:56;100605.31;;;0.33;100.00
71145;BME280;58812;47.698;17.726;2022-12-29T03:23:24;100611.50;;;0.32;100.00
71145;BME280;58812;47.698;17.726;2022-12-29T03:25:55;100614.22;;;0.31;100.00
71145;BME280;58812;47.698;17.726;2022-12-29T03:31:10;100614.22;;;0.31;100.00
71145;BME280;58812;47.698;17.726;2022-12-29T03:33:37;100599.63;;;0.23;100.00
71145;BME280;58812;47.698;17.726;2022-12-29T03:36:07;100610.03;;;0.26;100.00
71145;BME280;58812;47.698;17.726;2022-12-29T03:38:39;100607.38;;;0.26;100.00
71145;BME280;58812;47.698;17.726;2022-12-29T03:41:10;100611.88;;;0.24;100.00
71145;BME280;58812;47.698;17.726;2022-12-29T03:43:37;100614.28;;;0.29;100.00
71145;BME280;58812;47.698;17.726;2022-12-29T03:46:02;100614.28;;;0.29;100.00
71145;BME280;58812;47.698;17.726;2022-12-29T03:48:28;100608.09;;;0.30;100.00
71145;BME280;58812;47.698;17.726;2022-12-29T03:50:53;100610.78;;;0.29;100.00
71145;BME280;58812;47.698;17.726;2022-12-29T03:53:19;100602.47;;;0.38;100.00
71145;BME280;58812;47.698;17.726;2022-12-29T03:55:44;100606.97;;;0.36;100.00
71145;BME280;58812;47.698;17.726;2022-12-29T03:58:10;100602.59;;;0.35;100.00
71145;BME280;58812;47.698;17.726;2022-12-29T04:00:35;100604.53;;;0.31;100.00
71145;BME280;58812;47.698;17.726;2022-12-29T04:03:00;100601.84;;;0.33;100.00
71145;BME280;58812;47.698;17.726;2022-12-29T04:05:26;100603.69;;;0.31;100.00
71145;BME280;58812;47.698;17.726;2022-12-29T04:07:51;100607.22;;;0.30;100.00
71145;BME280;58812;47.698;17.726;2022-12-29T04:10:17;100609.94;;;0.28;100.00
71145;BME280;58812;47.698;17.726;2022-12-29T04:12:42;100613.44;;;0.29;100.00
71145;BME280;58812;47.698;17.726;2022-12-29T04:15:09;100607.38;;;0.26;100.00
71145;BME280;58812;47.698;17.726;2022-12-29T04:17:34;100603.81;;;0.28;100.00
71145;BME280;58812;47.698;17.726;2022-12-29T04:20:00;100605.59;;;0.27;100.00
71145;BME280;58812;47.698;17.726;2022-12-29T04:22:43;100601.28;;;0.26;100.00
71145;BME280;58812;47.698;17.726;2022-12-29T04:25:09;100596.94;;;0.25;100.00
71145;BME280;58812;47.698;17.726;2022-12-29T04:27:35;100598.56;;;0.28;100.00
71145;BME280;58812;47.698;17.726;2022-12-29T04:30:00;100601.97;;;0.30;100.00
71145;BME280;58812;47.698;17.726;2022-12-29T04:32:25;100603.75;;;0.29;100.00
71145;BME280;58812;47.698;17.726;2022-12-29T04:34:51;100605.53;;;0.29;100.00
71145;BME280;58812;47.698;17.726;2022-12-29T04:37:16;100605.69;;;0.25;100.00
71145;BME280;58812;47.698;17.726;2022-12-29T04:39:42;100606.66;;;0.23;100.00
71145;BME280;58812;47.698;17.726;2022-12-29T04:42:07;100606.75;;;0.21;100.00
71145;BME280;58812;47.698;17.726;2022-12-29T04:44:33;100606.91;;;0.18;100.00
71145;BME280;58812;47.698;17.726;2022-12-29T04:46:58;100614.81;;;0.18;100.00
71145;BME280;58812;47.698;17.726;2022-12-29T04:49:24;100609.66;;;0.15;100.00
71145;BME280;58812;47.698;17.726;2022-12-29T04:51:49;100611.25;;;0.19;100.00
71145;BME280;58812;47.698;17.726;2022-12-29T04:54:14;100617.50;;;0.17;100.00
71145;BME280;58812;47.698;17.726;2022-12-29T04:56:40;100615.88;;;0.14;100.00
71145;BME280;58812;47.698;17.726;2022-12-29T04:59:05;100618.50;;;0.14;100.00
71145;BME280;58812;47.698;17.726;2022-12-29T05:01:31;100608.09;;;0.11;100.00
71145;BME280;58812;47.698;17.726;2022-12-29T05:03:56;100613.53;;;0.08;100.00
71145;BME280;58812;47.698;17.726;2022-12-29T05:06:21;100612.75;;;0.06;100.00
71145;BME280;58812;47.698;17.726;2022-12-29T05:08:47;100612.81;;;0.05;100.00
71145;BME280;58812;47.698;17.726;2022-12-29T05:11:12;100606.69;;;0.04;100.00
71145;BME280;58812;47.698;17.726;2022-12-29T05:13:38;100605.06;;;0.02;100.00
71145;BME280;58812;47.698;17.726;2022-12-29T05:16:03;100603.28;;;0.02;100.00
71145;BME280;58812;47.698;17.726;2022-12-29T05:18:29;100589.59;;;-0.06;100.00
71145;BME280;58812;47.698;17.726;2022-12-29T05:20:54;100600.00;;;-0.03;100.00
71145;BME280;58812;47.698;17.726;2022-12-29T05:23:20;100605.28;;;-0.03;100.00
71145;BME280;58812;47.698;17.726;2022-12-29T05:25:45;100594.66;;;-0.02;100.00
71145;BME280;58812;47.698;17.726;2022-12-29T05:28:10;100593.88;;;-0.04;100.00
71145;BME280;58812;47.698;17.726;2022-12-29T05:30:36;100596.59;;;-0.05;100.00
71145;BME280;58812;47.698;17.726;2022-12-29T05:33:01;100600.13;;;-0.06;100.00
71145;BME280;58812;47.698;17.726;2022-12-29T05:35:27;100595.66;;;-0.04;100.00
71145;BME280;58812;47.698;17.726;2022-12-29T05:37:52;100606.84;;;0.01;100.00
71145;BME280;58812;47.698;17.726;2022-12-29T05:40:18;100600.72;;;0.01;100.00
71145;BME280;58812;47.698;17.726;2022-12-29T05:42:43;100596.31;;;0.01;100.00
71145;BME280;58812;47.698;17.726;2022-12-29T05:45:09;100605.12;;;0.00;100.00
71145;BME280;58812;47.698;17.726;2022-12-29T05:47:34;100594.75;;;-0.03;100.00
71145;BME280;58812;47.698;17.726;2022-12-29T05:50:00;100598.31;;;-0.04;100.00
71145;BME280;58812;47.698;17.726;2022-12-29T05:52:26;100595.88;;;-0.09;100.00
71145;BME280;58812;47.698;17.726;2022-12-29T05:54:52;100599.53;;;-0.11;100.00
71145;BME280;58812;47.698;17.726;2022-12-29T05:57:17;100603.84;;;-0.10;100.00
71145;BME280;58812;47.698;17.726;2022-12-29T05:59:42;100611.03;;;-0.14;100.00
71145;BME280;58812;47.698;17.726;2022-12-29T06:02:09;100610.25;;;-0.16;100.00
71145;BME280;58812;47.698;17.726;2022-12-29T06:04:34;100605.09;;;-0.19;100.00
71145;BME280;58812;47.698;17.726;2022-12-29T06:07:00;100613.09;;;-0.20;100.00
71145;BME280;58812;47.698;17.726;2022-12-29T06:09:25;100614.94;;;-0.22;100.00
71145;BME280;58812;47.698;17.726;2022-12-29T06:11:51;100615.06;;;-0.25;100.00
71145;BME280;58812;47.698;17.726;2022-12-29T06:14:16;100612.63;;;-0.30;100.00
71145;BME280;58812;47.698;17.726;2022-12-29T06:16:42;100619.81;;;-0.34;100.00
71145;BME280;58812;47.698;17.726;2022-12-29T06:19:07;100623.44;;;-0.36;100.00
71145;BME280;58812;47.698;17.726;2022-12-29T06:21:33;100626.06;;;-0.36;100.00
71145;BME280;58812;47.698;17.726;2022-12-29T06:23:58;100626.13;;;-0.38;100.00
71145;BME280;58812;47.698;17.726;2022-12-29T06:26:24;100612.22;;;-0.40;100.00
71145;BME280;58812;47.698;17.726;2022-12-29T06:28:49;100622.94;;;-0.44;100.00
71145;BME280;58812;47.698;17.726;2022-12-29T06:31:15;100622.16;;;-0.46;100.00
71145;BME280;58812;47.698;17.726;2022-12-29T06:33:40;100626.59;;;-0.48;100.00
71145;BME280;58812;47.698;17.726;2022-12-29T06:36:06;100625.91;;;-0.52;100.00
71145;BME280;58812;47.698;17.726;2022-12-29T06:38:32;100626.94;;;-0.56;100.00
71145;BME280;58812;47.698;17.726;2022-12-29T06:40:57;100630.59;;;-0.59;100.00
71145;BME280;58812;47.698;17.726;2022-12-29T06:43:22;100623.75;;;-0.63;100.00
71145;BME280;58812;47.698;17.726;2022-12-29T06:45:48;100624.75;;;-0.65;100.00
71145;BME280;58812;47.698;17.726;2022-12-29T06:48:13;100630.91;;;-0.66;100.00
71145;BME280;58812;47.698;17.726;2022-12-29T06:50:39;100637.75;;;-0.62;100.00
71145;BME280;58812;47.698;17.726;2022-12-29T06:53:04;100631.75;;;-0.66;100.00
71145;BME280;58812;47.698;17.726;2022-12-29T06:55:30;100631.72;;;-0.64;100.00
71145;BME280;58812;47.698;17.726;2022-12-29T06:57:56;100636.03;;;-0.63;100.00
71145;BME280;58812;47.698;17.726;2022-12-29T07:00:23;100637.75;;;-0.62;100.00
71145;BME280;58812;47.698;17.726;2022-12-29T07:02:48;100642.88;;;-0.59;100.00
71145;BME280;58812;47.698;17.726;2022-12-29T07:05:14;100641.03;;;-0.57;100.00
71145;BME280;58812;47.698;17.726;2022-12-29T07:07:40;100646.13;;;-0.54;100.00
71145;BME280;58812;47.698;17.726;2022-12-29T07:10:05;100643.22;;;-0.48;100.00
71145;BME280;58812;47.698;17.726;2022-12-29T07:12:31;100653.56;;;-0.43;100.00
71145;BME280;58812;47.698;17.726;2022-12-29T07:14:56;100649.97;;;-0.41;100.00
71145;BME280;58812;47.698;17.726;2022-12-29T07:17:21;100644.44;;;-0.35;100.00
71145;BME280;58812;47.698;17.726;2022-12-29T07:19:47;100642.22;;;-0.25;100.00
71145;BME280;58812;47.698;17.726;2022-12-29T07:22:12;100645.69;;;-0.24;100.00
71145;BME280;58812;47.698;17.726;2022-12-29T07:24:38;100641.38;;;-0.25;100.00
71145;BME280;58812;47.698;17.726;2022-12-29T07:27:03;100642.03;;;-0.20;100.00
71145;BME280;58812;47.698;17.726;2022-12-29T07:29:29;100633.19;;;-0.19;100.00
71145;BME280;58812;47.698;17.726;2022-12-29T07:31:54;100620.84;;;-0.17;100.00
71145;BME280;58812;47.698;17.726;2022-12-29T07:34:20;100629.44;;;-0.14;100.00
71145;BME280;58812;47.698;17.726;2022-12-29T07:36:45;100619.63;;;-0.10;100.00
71145;BME280;58812;47.698;17.726;2022-12-29T07:39:10;100620.34;;;-0.07;100.00
71145;BME280;58812;47.698;17.726;2022-12-29T07:41:36;100628.19;;;-0.05;100.00
71145;BME280;58812;47.698;17.726;2022-12-29T07:44:02;100635.84;;;-0.01;100.00
71145;BME280;58812;47.698;17.726;2022-12-29T07:46:28;100618.91;;;0.05;100.00
71145;BME280;58812;47.698;17.726;2022-12-29T07:48:53;100626.53;;;0.11;100.00
71145;BME280;58812;47.698;17.726;2022-12-29T07:51:19;100633.37;;;0.15;100.00
71145;BME280;58812;47.698;17.726;2022-12-29T07:53:44;100631.38;;;0.20;100.00
71145;BME280;58812;47.698;17.726;2022-12-29T07:56:09;100631.16;;;0.25;100.00
71145;BME280;58812;47.698;17.726;2022-12-29T07:58:35;100626.47;;;0.32;100.00
71145;BME280;58812;47.698;17.726;2022-12-29T08:01:00;100630.59;;;0.37;100.00
71145;BME280;58812;47.698;17.726;2022-12-29T08:03:26;100638.13;;;0.45;100.00
71145;BME280;58812;47.698;17.726;2022-12-29T08:05:51;100633.47;;;0.50;100.00
71145;BME280;58812;47.698;17.726;2022-12-29T08:08:17;100629.69;;;0.56;100.00
71145;BME280;58812;47.698;17.726;2022-12-29T08:10:42;100624.22;;;0.60;100.00
71145;BME280;58812;47.698;17.726;2022-12-29T08:13:08;100621.28;;;0.66;100.00
71145;BME280;58812;47.698;17.726;2022-12-29T08:15:34;100620.97;;;0.72;100.00
71145;BME280;58812;47.698;17.726;2022-12-29T08:17:59;100629.53;;;0.77;100.00
71145;BME280;58812;47.698;17.726;2022-12-29T08:20:25;100615.09;;;0.85;100.00
71145;BME280;58812;47.698;17.726;2022-12-29T08:22:51;100615.72;;;0.90;100.00
71145;BME280;58812;47.698;17.726;2022-12-29T08:25:16;100623.16;;;0.99;100.00
71145;BME280;58812;47.698;17.726;2022-12-29T08:27:41;100625.34;;;1.08;100.00
71145;BME280;58812;47.698;17.726;2022-12-29T08:30:08;100627.69;;;1.14;100.00
71145;BME280;58812;47.698;17.726;2022-12-29T08:32:33;100628.31;;;1.19;100.00
71145;BME280;58812;47.698;17.726;2022-12-29T08:34:59;100635.59;;;1.31;100.00
71145;BME280;58812;47.698;17.726;2022-12-29T08:37:24;100621.38;;;1.34;100.00
71145;BME280;58812;47.698;17.726;2022-12-29T08:39:50;100631.19;;;1.48;100.00
71145;BME280;58812;47.698;17.726;2022-12-29T08:42:15;100628.31;;;1.52;100.00
71145;BME280;58812;47.698;17.726;2022-12-29T08:44:41;100630.16;;;1.68;100.00
71145;BME280;58812;47.698;17.726;2022-12-29T08:47:06;100636.13;;;1.71;100.00
71145;BME280;58812;47.698;17.726;2022-12-29T08:49:33;100634.72;;;1.81;100.00
71145;BME280;58812;47.698;17.726;2022-12-29T08:51:59;100637.78;;;1.90;100.00
71145;BME280;58812;47.698;17.726;2022-12-29T08:54:24;100638.16;;;1.99;100.00
71145;BME280;58812;47.698;17.726;2022-12-29T08:56:50;100631.31;;;1.95;100.00
71145;BME280;58812;47.698;17.726;2022-12-29T08:59:15;100640.37;;;2.07;100.00
71145;BME280;58812;47.698;17.726;2022-12-29T09:01:41;100632.91;;;2.15;100.00
71145;BME280;58812;47.698;17.726;2022-12-29T09:04:07;100641.25;;;2.23;100.00
71145;BME280;58812;47.698;17.726;2022-12-29T09:06:33;100638.09;;;2.32;100.00
71145;BME280;58812;47.698;17.726;2022-12-29T09:08:58;100637.47;;;2.43;100.00
71145;BME280;58812;47.698;17.726;2022-12-29T09:11:25;100629.66;;;2.57;100.00
71145;BME280;58812;47.698;17.726;2022-12-29T09:13:52;100650.78;;;2.73;100.00
71145;BME280;58812;47.698;17.726;2022-12-29T09:16:20;100639.88;;;2.79;100.00
71145;BME280;58812;47.698;17.726;2022-12-29T09:18:46;100640.44;;;2.84;100.00
71145;BME280;58812;47.698;17.726;2022-12-29T09:21:11;100644.59;;;3.04;99.41
71145;BME280;58812;47.698;17.726;2022-12-29T09:23:38;100635.47;;;3.24;98.25
71145;BME280;58812;47.698;17.726;2022-12-29T09:26:03;100630.97;;;3.26;98.50
71145;BME280;58812;47.698;17.726;2022-12-29T09:28:29;100623.66;;;3.30;98.04
71145;BME280;58812;47.698;17.726;2022-12-29T09:30:56;100628.50;;;3.37;98.02
71145;BME280;58812;47.698;17.726;2022-12-29T09:33:21;100622.47;;;3.49;97.20
71145;BME280;58812;47.698;17.726;2022-12-29T09:35:52;100612.56;;;3.82;96.27
71145;BME280;58812;47.698;17.726;2022-12-29T09:38:18;100603.47;;;4.00;94.92
71145;BME280;58812;47.698;17.726;2022-12-29T09:46:20;100612.25;;;5.35;87.62
71145;BME280;58812;47.698;17.726;2022-12-29T09:48:55;100616.06;;;5.82;86.64
71145;BME280;58812;47.698;17.726;2022-12-29T09:51:25;100604.97;;;6.27;85.62
71145;BME280;58812;47.698;17.726;2022-12-29T09:54:23;100601.94;;;6.44;83.54
71145;BME280;58812;47.698;17.726;2022-12-29T09:56:45;100622.19;;;6.82;82.33
71145;BME280;58812;47.698;17.726;2022-12-29T09:59:16;100607.34;;;7.14;80.59
71145;BME280;58812;47.698;17.726;2022-12-29T10:04:20;100609.00;;;7.50;78.97
71145;BME280;58812;47.698;17.726;2022-12-29T10:06:57;100609.16;;;7.71;77.23
71145;BME280;58812;47.698;17.726;2022-12-29T10:14:56;100590.88;;;8.00;72.42
71145;BME280;58812;47.698;17.726;2022-12-29T10:25:22;100580.59;;;9.35;69.66
71145;BME280;58812;47.698;17.726;2022-12-29T10:27:51;100582.75;;;9.42;67.07
71145;BME280;58812;47.698;17.726;2022-12-29T10:30:19;100581.97;;;9.30;67.06
71145;BME280;58812;47.698;17.726;2022-12-29T10:32:45;100580.34;;;9.39;67.53
71145;BME280;58812;47.698;17.726;2022-12-29T10:35:14;100579.78;;;9.66;66.42
71145;BME280;58812;47.698;17.726;2022-12-29T10:37:58;100580.22;;;10.01;66.16
71145;BME280;58812;47.698;17.726;2022-12-29T10:42:53;100579.25;;;10.42;64.25
71145;BME280;58812;47.698;17.726;2022-12-29T10:45:21;100585.87;;;10.38;62.96
71145;BME280;58812;47.698;17.726;2022-12-29T10:47:53;100582.69;;;10.74;62.80
71145;BME280;58812;47.698;17.726;2022-12-29T10:50:20;100576.91;;;10.98;62.35
71145;BME280;58812;47.698;17.726;2022-12-29T10:52:47;100577.75;;;11.08;59.81
71145;BME280;58812;47.698;17.726;2022-12-29T10:55:26;100561.41;;;10.91;60.39
71145;BME280;58812;47.698;17.726;2022-12-29T10:57:53;100565.16;;;10.40;61.45
71145;BME280;58812;47.698;17.726;2022-12-29T11:00:21;100560.41;;;11.02;61.13
71145;BME280;58812;47.698;17.726;2022-12-29T11:07:58;100557.44;;;11.15;59.96
71145;BME280;58812;47.698;17.726;2022-12-29T11:13:11;100551.69;;;10.81;61.32
71145;BME280;58812;47.698;17.726;2022-12-29T11:15:47;100557.03;;;10.81;61.12
71145;BME280;58812;47.698;17.726;2022-12-29T11:18:34;100552.37;;;10.73;61.51
71145;BME280;58812;47.698;17.726;2022-12-29T11:21:04;100543.50;;;10.63;61.41
71145;BME280;58812;47.698;17.726;2022-12-29T11:26:22;100549.13;;;10.99;60.43
71145;BME280;58812;47.698;17.726;2022-12-29T11:31:42;100557.25;;;11.26;59.54
71145;BME280;58812;47.698;17.726;2022-12-29T11:34:08;100558.41;;;11.14;60.33
71145;BME280;58812;47.698;17.726;2022-12-29T11:36:34;100555.47;;;11.17;60.74
71145;BME280;58812;47.698;17.726;2022-12-29T11:39:01;100547.47;;;11.54;59.89
71145;BME280;58812;47.698;17.726;2022-12-29T11:41:31;100536.16;;;11.04;60.30
71145;BME280;58812;47.698;17.726;2022-12-29T11:44:02;100551.63;;;11.19;60.89
71145;BME280;58812;47.698;17.726;2022-12-29T11:46:35;100537.56;;;11.08;59.44
71145;BME280;58812;47.698;17.726;2022-12-29T11:49:03;100539.56;;;11.53;58.62
71145;BME280;58812;47.698;17.726;2022-12-29T11:51:47;100548.87;;;11.58;58.77
71145;BME280;58812;47.698;17.726;2022-12-29T11:56:44;100544.59;;;11.75;59.35
71145;BME280;58812;47.698;17.726;2022-12-29T12:02:00;100544.12;;;11.80;58.13
71145;BME280;58812;47.698;17.726;2022-12-29T12:04:30;100545.13;;;11.78;57.43
71145;BME280;58812;47.698;17.726;2022-12-29T12:07:11;100542.03;;;11.83;57.89
71145;BME280;58812;47.698;17.726;2022-12-29T12:09:45;100539.63;;;11.80;57.89
71145;BME280;58812;47.698;17.726;2022-12-29T12:12:26;100547.97;;;11.87;58.63
71145;BME280;58812;47.698;17.726;2022-12-29T12:14:55;100547.84;;;11.69;58.78
71145;BME280;58812;47.698;17.726;2022-12-29T12:20:22;100547.12;;;11.86;58.36
71145;BME280;58812;47.698;17.726;2022-12-29T12:23:15;100530.78;;;11.97;58.72
71145;BME280;58812;47.698;17.726;2022-12-29T12:26:18;100524.38;;;12.08;58.22
71145;BME280;58812;47.698;17.726;2022-12-29T12:29:04;100523.75;;;11.96;57.81
71145;BME280;58812;47.698;17.726;2022-12-29T12:31:49;100534.06;;;11.91;57.64
71145;BME280;58812;47.698;17.726;2022-12-29T12:34:40;100532.00;;;12.13;57.48
71145;BME280;58812;47.698;17.726;2022-12-29T13:00:15;100501.03;;;11.07;62.71
71145;BME280;58812;47.698;17.726;2022-12-29T13:02:59;100497.41;;;10.88;63.00
71145;BME280;58812;47.698;17.726;2022-12-29T13:08:53;100497.41;;;10.40;65.56
71145;BME280;58812;47.698;17.726;2022-12-29T13:14:13;100490.28;;;9.90;67.05
71145;BME280;58812;47.698;17.726;2022-12-29T13:17:17;100489.44;;;10.00;67.27
71145;BME280;58812;47.698;17.726;2022-12-29T13:22:28;100496.06;;;9.65;69.35
71145;BME280;58812;47.698;17.726;2022-12-29T13:25:30;100495.22;;;9.64;69.42
71145;BME280;58812;47.698;17.726;2022-12-29T13:28:14;100496.34;;;9.62;69.81
71145;BME280;58812;47.698;17.726;2022-12-29T13:31:00;100503.56;;;9.41;70.92
71145;BME280;58812;47.698;17.726;2022-12-29T13:40:03;100488.44;;;8.99;73.63
71145;BME280;58812;47.698;17.726;2022-12-29T13:42:11;100501.84;;;8.88;75.42
71145;BME280;58812;47.698;17.726;2022-12-29T13:44:50;100498.91;;;9.12;73.97
71145;BME280;58812;47.698;17.726;2022-12-29T13:47:21;100506.59;;;9.05;73.73
71145;BME280;58812;47.698;17.726;2022-12-29T13:49:50;100497.22;;;9.11;73.07
71145;BME280;58812;47.698;17.726;2022-12-29T13:55:38;100511.56;;;9.10;73.16
71145;BME280;58812;47.698;17.726;2022-12-29T13:58:19;100505.28;;;9.00;73.72
71145;BME280;58812;47.698;17.726;2022-12-29T14:00:56;100512.59;;;8.98;74.07
71145;BME280;58812;47.698;17.726;2022-12-29T14:08:36;100519.59;;;8.57;75.72
71145;BME280;58812;47.698;17.726;2022-12-29T14:11:08;100513.91;;;8.50;75.96
71145;BME280;58812;47.698;17.726;2022-12-29T14:13:38;100515.97;;;8.47;81.64
71145;BME280;58812;47.698;17.726;2022-12-29T14:16:05;100524.75;;;8.38;78.09
71145;BME280;58812;47.698;17.726;2022-12-29T14:18:33;100521.81;;;8.29;77.87
71145;BME280;58812;47.698;17.726;2022-12-29T14:23:42;100538.41;;;8.01;79.03
71145;BME280;58812;47.698;17.726;2022-12-29T14:26:17;100527.12;;;7.75;80.54
71145;BME280;58812;47.698;17.726;2022-12-29T14:28:47;100527.25;;;7.40;82.41
71145;BME280;58812;47.698;17.726;2022-12-29T14:33:38;100521.22;;;6.91;84.49
71145;BME280;58812;47.698;17.726;2022-12-29T14:38:45;100510.22;;;6.50;87.53
71145;BME280;58812;47.698;17.726;2022-12-29T14:41:24;100506.38;;;6.30;88.53
71145;BME280;58812;47.698;17.726;2022-12-29T14:44:17;100505.06;;;6.11;90.55
71145;BME280;58812;47.698;17.726;2022-12-29T14:46:54;100510.97;;;5.91;90.88
71145;BME280;58812;47.698;17.726;2022-12-29T14:49:28;100513.75;;;5.77;91.92
71145;BME280;58812;47.698;17.726;2022-12-29T14:52:17;100511.56;;;5.58;93.89
71145;BME280;58812;47.698;17.726;2022-12-29T14:57:25;100518.91;;;5.29;96.04
71145;BME280;58812;47.698;17.726;2022-12-29T14:59:56;100526.75;;;5.18;96.15
71145;BME280;58812;47.698;17.726;2022-12-29T15:02:26;100524.72;;;5.08;96.95
71145;BME280;58812;47.698;17.726;2022-12-29T15:04:59;100526.34;;;4.98;97.07
71145;BME280;58812;47.698;17.726;2022-12-29T15:07:27;100519.72;;;4.91;97.49
71145;BME280;58812;47.698;17.726;2022-12-29T15:10:08;100516.94;;;4.80;97.57